Time;durP1;ratioP1;P1;durP2;ratioP2;P2;SDS_P1;SDS_P2;PMS_P1;PMS_P2;Temp;Humidity;BMP_temperature;BMP_pressure;BME280_temperature;BME280_humidity;BME280_pressure;Samples;Min_cycle;Max_cycle;Signal;HPM_P1;HPM_P2
2024/01/04 00:00:25;;;;;;;2.00;0.10;;;9.80;99.90;9.80;98166.00;;;;4902119;28;125602;-72
2024/01/04 00:02:51;;;;;;;0.23;0.10;;;9.80;99.90;9.80;98175.00;;;;4904107;28;94098;-70
2024/01/04 00:05:18;;;;;;;0.47;0.30;;;9.90;99.90;9.80;98176.00;;;;4902168;28;92987;-71
2024/01/04 00:07:44;;;;;;;2.03;0.10;;;9.90;99.90;9.80;98171.00;;;;4903982;28;92954;-71
2024/01/04 00:10:10;;;;;;;0.77;0.20;;;9.90;99.90;9.70;98167.00;;;;4901864;28;93917;-74
2024/01/04 00:12:36;;;;;;;0.20;0.17;;;9.80;99.90;9.50;98173.00;;;;4899878;28;93853;-72
2024/01/04 00:15:08;;;;;;;0.40;0.20;;;9.90;99.90;9.20;98174.00;;;;4900944;28;92817;-73
2024/01/04 00:17:34;;;;;;;0.13;0.13;;;9.40;99.90;9.10;98178.00;;;;4899371;28;100709;-73
2024/01/04 00:20:00;;;;;;;0.10;0.10;;;9.30;99.90;8.90;98167.00;;;;4899523;28;94910;-72
2024/01/04 00:22:25;;;;;;;0.10;0.10;;;9.10;99.90;8.80;98168.00;;;;4901597;28;121950;-74
2024/01/04 00:24:51;;;;;;;0.00;0.00;;;9.00;99.90;8.80;98176.00;;;;4902519;28;95124;-72
2024/01/04 00:27:17;;;;;;;0.20;0.20;;;8.90;99.90;8.70;98163.00;;;;4902186;28;102974;-74
2024/01/04 00:29:43;;;;;;;0.00;0.00;;;8.90;99.90;8.70;98172.00;;;;4888787;28;92910;-72
2024/01/04 00:32:09;;;;;;;0.00;0.00;;;8.80;99.90;8.70;98170.00;;;;4890246;28;114986;-73
2024/01/04 00:34:35;;;;;;;0.23;0.20;;;8.80;99.90;8.70;98170.00;;;;4905415;28;93184;-72
2024/01/04 00:37:02;;;;;;;0.10;0.10;;;8.80;99.90;8.70;98169.00;;;;4902755;28;93754;-74
2024/01/04 00:39:27;;;;;;;0.10;0.10;;;8.80;99.90;8.80;98179.00;;;;4902624;28;109716;-72
2024/01/04 00:41:53;;;;;;;0.27;0.23;;;8.80;99.90;8.90;98179.00;;;;4901847;28;123011;-71
2024/01/04 00:44:19;;;;;;;0.07;0.07;;;8.80;99.90;8.90;98177.00;;;;4900351;28;92849;-72
2024/01/04 00:46:45;;;;;;;0.03;0.03;;;9.00;99.90;9.00;98176.00;;;;4905020;28;92870;-71
2024/01/04 00:49:11;;;;;;;1.27;0.10;;;9.10;99.90;9.00;98167.00;;;;4898736;28;99924;-73
2024/01/04 00:51:37;;;;;;;0.10;0.10;;;9.10;99.90;9.00;98170.00;;;;4902895;28;122063;-70
2024/01/04 00:54:03;;;;;;;0.20;0.20;;;9.10;99.90;9.10;98169.00;;;;4899082;28;92919;-71
2024/01/04 00:56:35;;;;;;;0.17;0.10;;;9.10;99.90;9.10;98177.00;;;;4902863;28;108362;-71
2024/01/04 00:59:01;;;;;;;0.27;0.20;;;9.20;99.90;9.10;98177.00;;;;4900866;28;99496;-72
2024/01/04 01:01:27;;;;;;;0.10;0.10;;;9.50;99.90;9.10;98169.00;;;;4900185;28;122079;-71
2024/01/04 01:03:53;;;;;;;0.60;0.17;;;9.20;99.90;9.10;98166.00;;;;4905355;28;105337;-71
2024/01/04 01:06:18;;;;;;;0.00;0.00;;;9.20;99.90;9.10;98173.00;;;;4901105;28;92214;-71
2024/01/04 01:08:44;;;;;;;0.20;0.20;;;9.20;99.90;9.20;98178.00;;;;4903558;28;98924;-72
2024/01/04 01:11:10;;;;;;;0.07;0.07;;;9.20;99.90;9.10;98182.00;;;;4904363;28;122585;-72
2024/01/04 01:13:35;;;;;;;0.20;0.20;;;9.20;99.90;9.20;98183.00;;;;4906731;28;110684;-73
2024/01/04 01:16:01;;;;;;;0.10;0.10;;;9.20;99.90;9.20;98175.00;;;;4906786;28;108322;-74
2024/01/04 01:18:27;;;;;;;0.10;0.10;;;9.30;99.90;9.10;98181.00;;;;4902832;28;108921;-71
2024/01/04 01:20:54;;;;;;;0.33;0.10;;;9.20;99.90;9.10;98187.00;;;;4905180;28;93654;-74
2024/01/04 01:23:20;;;;;;;0.00;0.00;;;9.20;99.90;9.10;98185.00;;;;4918783;28;109927;-71
2024/01/04 01:25:46;;;;;;;1.83;0.10;;;9.20;99.90;9.00;98172.00;;;;4905080;28;108287;-72
2024/01/04 01:28:11;;;;;;;0.10;0.10;;;9.20;99.90;9.00;98179.00;;;;4891433;28;123422;-73
2024/01/04 01:30:37;;;;;;;2.63;0.17;;;9.10;99.90;9.00;98174.00;;;;4905461;28;93006;-72
2024/01/04 01:33:03;;;;;;;0.10;0.10;;;9.10;99.90;9.00;98185.00;;;;4905731;28;109115;-74
2024/01/04 01:35:28;;;;;;;0.17;0.17;;;9.10;99.90;9.00;98188.00;;;;4891480;28;101001;-71
2024/01/04 01:37:54;;;;;;;0.10;0.10;;;9.10;99.90;9.00;98187.00;;;;4902017;28;122104;-72
2024/01/04 01:40:21;;;;;;;0.10;0.10;;;9.10;99.90;9.00;98199.00;;;;4903735;28;102874;-72
2024/01/04 01:42:50;;;;;;;0.10;0.10;;;9.20;99.90;9.00;98193.00;;;;4920304;28;93273;-73
2024/01/04 01:45:16;;;;;;;0.20;0.20;;;10.10;99.90;9.10;98199.00;;;;4904534;28;93139;-71
2024/01/04 01:47:45;;;;;;;0.00;0.00;;;9.10;99.90;9.10;98203.00;;;;4917941;28;93987;-71
2024/01/04 01:50:11;;;;;;;0.00;0.00;;;9.10;99.90;9.10;98203.00;;;;4903928;28;111536;-71
2024/01/04 01:52:37;;;;;;;0.20;0.20;;;9.20;99.90;9.00;98199.00;;;;4902324;28;111612;-71
2024/01/04 01:55:03;;;;;;;0.73;0.20;;;9.20;99.90;9.00;98192.00;;;;4902398;28;107259;-71
2024/01/04 01:57:33;;;;;;;0.10;0.10;;;9.10;99.90;9.00;98204.00;;;;4904608;28;99438;-72
2024/01/04 02:00:13;;;;;;;3.13;0.30;;;9.10;99.90;8.90;98201.00;;;;4902426;28;93906;-72
2024/01/04 02:02:39;;;;;;;0.30;0.10;;;9.10;99.90;8.80;98196.00;;;;4916911;28;97391;-73
2024/01/04 02:05:06;;;;;;;0.10;0.10;;;9.00;99.90;8.80;98207.00;;;;4920133;28;93193;-70
2024/01/04 02:07:32;;;;;;;0.10;0.10;;;8.90;99.90;8.70;98205.00;;;;4902864;28;94374;-70
2024/01/04 02:09:58;;;;;;;0.70;0.30;;;8.80;99.90;8.70;98210.00;;;;4903253;28;122363;-71
2024/01/04 02:12:25;;;;;;;0.13;0.10;;;8.80;99.90;8.70;98209.00;;;;4902545;28;101674;-70
2024/01/04 02:14:54;;;;;;;0.10;0.10;;;8.80;99.90;8.60;98227.00;;;;4907653;28;94408;-72
2024/01/04 02:17:21;;;;;;;1.60;0.20;;;8.70;99.90;8.60;98219.00;;;;4901110;28;93242;-72
2024/01/04 02:19:47;;;;;;;1.23;0.30;;;8.80;99.90;8.60;98219.00;;;;4883735;28;94081;-71
2024/01/04 02:22:14;;;;;;;0.00;0.00;;;8.80;99.90;8.60;98224.00;;;;4905469;28;93641;-73
2024/01/04 02:24:40;;;;;;;0.10;0.10;;;8.70;99.90;8.60;98217.00;;;;4903416;28;93276;-72
2024/01/04 02:27:06;;;;;;;0.00;0.00;;;8.70;99.90;8.60;98223.00;;;;4905278;28;112748;-71
2024/01/04 02:29:32;;;;;;;0.00;0.00;;;8.70;99.90;8.60;98223.00;;;;4902663;28;122189;-74
2024/01/04 02:31:57;;;;;;;0.00;0.00;;;8.70;99.90;8.70;98226.00;;;;4906028;28;110141;-72
2024/01/04 02:34:23;;;;;;;0.07;0.07;;;8.70;99.90;8.70;98221.00;;;;4901493;28;107605;-71
2024/01/04 02:36:49;;;;;;;0.23;0.23;;;8.80;99.90;8.70;98228.00;;;;4900282;28;118819;-73
2024/01/04 02:39:14;;;;;;;0.60;0.20;;;8.80;99.90;8.70;98215.00;;;;4902843;28;122552;-71
2024/01/04 02:41:47;;;;;;;0.10;0.10;;;8.80;99.90;8.70;98225.00;;;;4899394;28;110413;-73
2024/01/04 02:44:13;;;;;;;0.10;0.10;;;8.80;99.90;8.70;98223.00;;;;4906088;28;93010;-72
2024/01/04 02:46:39;;;;;;;0.20;0.20;;;8.80;99.90;8.70;98214.00;;;;4905253;28;121380;-75
2024/01/04 02:49:04;;;;;;;0.23;0.23;;;8.80;99.90;8.80;98217.00;;;;4888379;28;121972;-70
2024/01/04 02:51:30;;;;;;;0.97;0.10;;;8.80;99.90;8.80;98219.00;;;;4902969;28;110511;-70
2024/01/04 02:53:56;;;;;;;0.10;0.10;;;8.90;99.90;8.80;98219.00;;;;4899733;28;99050;-71
2024/01/04 02:56:22;;;;;;;0.10;0.10;;;8.90;99.90;8.80;98216.00;;;;4901753;28;124359;-69
2024/01/04 02:58:47;;;;;;;0.00;0.00;;;8.90;99.90;8.80;98207.00;;;;4901105;28;118155;-71
2024/01/04 03:01:23;;;;;;;0.43;0.33;;;8.90;99.90;8.80;98215.00;;;;4901767;28;100214;-72
2024/01/04 03:03:55;;;;;;;0.10;0.10;;;8.90;99.90;8.80;98222.00;;;;4905624;28;93792;-70
2024/01/04 03:06:30;;;;;;;0.27;0.20;;;8.90;99.90;8.80;98221.00;;;;4902702;28;94060;-73
2024/01/04 03:08:56;;;;;;;8.73;0.33;;;9.00;99.90;8.90;98210.00;;;;4900377;28;92739;-71
2024/01/04 03:11:22;;;;;;;0.77;0.40;;;9.00;99.90;8.90;98220.00;;;;4898575;28;104713;-71
2024/01/04 03:13:47;;;;;;;0.27;0.20;;;9.00;99.90;9.00;98210.00;;;;4902780;28;106790;-71
2024/01/04 03:16:19;;;;;;;0.10;0.10;;;9.00;99.90;9.00;98228.00;;;;4901636;28;123988;-71
2024/01/04 03:18:45;;;;;;;0.63;0.20;;;9.10;99.90;9.00;98212.00;;;;4907820;28;93974;-72
2024/01/04 03:21:11;;;;;;;0.30;0.30;;;9.10;99.90;9.10;98213.00;;;;4904376;28;108693;-71
2024/01/04 03:23:37;;;;;;;0.20;0.20;;;9.20;99.90;9.10;98220.00;;;;4899646;28;108372;-72
2024/01/04 03:26:02;;;;;;;2.53;0.20;;;9.20;99.90;9.10;98213.00;;;;4916663;28;95208;-73
2024/01/04 03:28:28;;;;;;;0.83;0.37;;;9.20;99.90;9.20;98211.00;;;;4901452;28;93850;-71
2024/01/04 03:30:54;;;;;;;0.30;0.20;;;9.30;99.90;9.20;98215.00;;;;4905646;28;106771;-72
2024/01/04 03:33:19;;;;;;;0.53;0.27;;;9.30;99.90;9.20;98214.00;;;;4903972;28;109141;-73
2024/01/04 03:35:45;;;;;;;0.10;0.10;;;9.30;99.90;9.10;98217.00;;;;4906010;28;121727;-71
2024/01/04 03:38:11;;;;;;;0.10;0.10;;;9.30;99.90;9.00;98224.00;;;;4902037;28;122531;-75
2024/01/04 03:40:36;;;;;;;0.10;0.10;;;9.50;99.90;8.80;98223.00;;;;4901842;28;110052;-73
2024/01/04 03:43:04;;;;;;;0.30;0.20;;;9.00;99.90;8.70;98226.00;;;;4899155;28;107532;-74
2024/01/04 03:45:33;;;;;;;9.43;0.40;;;8.90;99.90;8.50;98222.00;;;;4904290;28;94972;-73
2024/01/04 03:48:02;;;;;;;0.10;0.10;;;8.70;99.90;8.40;98219.00;;;;4918882;28;93289;-77
2024/01/04 03:50:28;;;;;;;0.30;0.20;;;8.60;99.90;8.30;98225.00;;;;4900294;28;93110;-77
2024/01/04 03:52:54;;;;;;;0.10;0.10;;;8.40;99.90;8.20;98221.00;;;;4901058;28;92898;-74
2024/01/04 03:55:20;;;;;;;0.10;0.10;;;8.40;99.90;8.10;98219.00;;;;4901082;28;93001;-72
2024/01/04 03:57:46;;;;;;;0.27;0.20;;;8.30;99.90;8.10;98228.00;;;;4899003;28;122891;-77
2024/01/04 04:00:12;;;;;;;0.10;0.10;;;8.30;99.90;8.10;98227.00;;;;4914619;28;110921;-73
2024/01/04 04:02:39;;;;;;;0.73;0.33;;;8.20;99.90;8.00;98223.00;;;;4900787;28;93074;-74
2024/01/04 04:05:05;;;;;;;2.43;0.33;;;8.20;99.90;8.00;98228.00;;;;4901592;28;107272;-75
2024/01/04 04:07:31;;;;;;;0.10;0.10;;;8.20;99.90;8.00;98230.00;;;;4901969;28;94518;-76
2024/01/04 04:09:57;;;;;;;0.07;0.07;;;8.20;99.90;8.00;98237.00;;;;4901790;28;93110;-73
2024/01/04 04:12:24;;;;;;;3.10;0.37;;;8.60;99.90;8.00;98239.00;;;;4908251;28;92835;-73
2024/01/04 04:14:53;;;;;;;0.17;0.17;;;8.10;99.90;8.00;98243.00;;;;4901097;28;93343;-74
2024/01/04 04:17:24;;;;;;;1.03;0.30;;;8.10;99.90;8.00;98245.00;;;;4906230;28;95419;-74
2024/01/04 04:19:52;;;;;;;0.40;0.30;;;8.10;99.90;8.00;98239.00;;;;4906509;28;93010;-76
2024/01/04 04:22:18;;;;;;;0.10;0.10;;;8.10;99.90;7.90;98244.00;;;;4899952;28;92221;-73
2024/01/04 04:24:44;;;;;;;0.10;0.10;;;7.90;99.90;7.90;98242.00;;;;4901845;28;121980;-75
2024/01/04 04:27:10;;;;;;;0.60;0.33;;;8.10;99.90;7.90;98239.00;;;;4900163;28;121766;-71
2024/01/04 04:29:40;;;;;;;0.20;0.20;;;8.00;99.90;7.90;98249.00;;;;4902938;28;93861;-73
2024/01/04 04:32:06;;;;;;;0.10;0.10;;;8.10;99.90;7.90;98246.00;;;;4915081;28;92974;-71
2024/01/04 04:34:32;;;;;;;1.27;0.17;;;8.00;99.90;7.90;98232.00;;;;4899748;28;93092;-74
2024/01/04 04:36:58;;;;;;;0.27;0.13;;;8.00;99.90;7.80;98247.00;;;;4900924;28;121865;-72
2024/01/04 04:39:23;;;;;;;0.10;0.10;;;8.00;99.90;7.80;98243.00;;;;4899258;28;109412;-71
2024/01/04 04:41:49;;;;;;;0.20;0.10;;;8.00;99.90;7.80;98232.00;;;;4899879;28;108340;-72
2024/01/04 04:44:15;;;;;;;0.10;0.10;;;7.90;99.90;7.80;98244.00;;;;4899094;28;94319;-71
2024/01/04 04:46:40;;;;;;;0.43;0.30;;;7.90;99.90;7.70;98241.00;;;;4888032;28;120356;-73
2024/01/04 04:49:07;;;;;;;0.37;0.30;;;7.90;99.90;7.70;98237.00;;;;4899427;28;93041;-77
2024/01/04 04:51:33;;;;;;;0.30;0.23;;;7.90;99.90;7.70;98252.00;;;;4917479;28;94354;-73
2024/01/04 04:53:59;;;;;;;0.40;0.20;;;7.80;99.90;7.70;98241.00;;;;4899816;28;115741;-73
2024/01/04 04:56:25;;;;;;;0.10;0.10;;;7.90;99.90;7.70;98246.00;;;;4889011;28;96043;-76
2024/01/04 04:58:50;;;;;;;0.97;0.20;;;7.80;99.90;7.70;98244.00;;;;4901230;28;109972;-76
2024/01/04 05:01:16;;;;;;;0.27;0.10;;;7.80;99.90;7.70;98261.00;;;;4896354;28;102772;-74
2024/01/04 05:03:42;;;;;;;0.20;0.13;;;7.80;99.90;7.70;98248.00;;;;4901692;28;93963;-73
2024/01/04 05:06:08;;;;;;;0.10;0.10;;;7.90;99.90;7.70;98247.00;;;;4901501;28;122653;-74
2024/01/04 05:08:34;;;;;;;0.10;0.10;;;7.80;99.90;7.70;98247.00;;;;4901543;28;93133;-71
2024/01/04 05:11:00;;;;;;;0.10;0.10;;;7.80;99.90;7.70;98253.00;;;;4899781;28;108593;-73
2024/01/04 05:13:25;;;;;;;0.27;0.20;;;7.80;99.90;7.70;98264.00;;;;4897835;28;122790;-73
2024/01/04 05:15:51;;;;;;;0.30;0.20;;;7.80;99.90;7.70;98273.00;;;;4899524;28;121591;-71
2024/01/04 05:18:17;;;;;;;0.17;0.17;;;7.80;99.90;7.70;98263.00;;;;4905255;28;109917;-75
2024/01/04 05:20:42;;;;;;;0.00;0.00;;;7.80;99.90;7.70;98268.00;;;;4905176;28;93168;-70
2024/01/04 05:23:08;;;;;;;0.17;0.13;;;7.80;99.90;7.60;98267.00;;;;4899942;28;123971;-70
2024/01/04 05:25:34;;;;;;;0.17;0.17;;;7.80;99.90;7.60;98278.00;;;;4900278;28;120916;-70
2024/01/04 05:28:00;;;;;;;0.10;0.10;;;7.70;99.90;7.60;98272.00;;;;4899196;28;111735;-69
2024/01/04 05:30:25;;;;;;;0.10;0.10;;;7.70;99.90;7.60;98280.00;;;;4900790;28;108138;-71
2024/01/04 05:32:51;;;;;;;0.10;0.10;;;7.80;99.90;7.60;98282.00;;;;4897702;28;121406;-69
2024/01/04 05:35:17;;;;;;;0.17;0.17;;;7.70;99.90;7.60;98281.00;;;;4902435;28;124085;-68
2024/01/04 05:37:42;;;;;;;0.50;0.20;;;7.70;99.90;7.60;98291.00;;;;4902077;28;95661;-69
2024/01/04 05:40:09;;;;;;;0.30;0.30;;;7.70;99.90;7.60;98286.00;;;;4902281;28;108779;-69
2024/01/04 05:42:36;;;;;;;0.10;0.10;;;7.70;99.90;7.60;98296.00;;;;4903348;28;95217;-68
2024/01/04 05:45:04;;;;;;;0.30;0.30;;;7.70;99.90;7.60;98289.00;;;;4902961;28;104852;-69
2024/01/04 05:47:30;;;;;;;0.43;0.13;;;7.70;99.90;7.60;98298.00;;;;4899707;28;93136;-69
2024/01/04 05:49:59;;;;;;;0.67;0.30;;;7.70;99.90;7.60;98300.00;;;;4904674;28;93149;-68
2024/01/04 05:52:25;;;;;;;0.20;0.20;;;7.70;99.90;7.60;98298.00;;;;4899298;28;93509;-68
2024/01/04 05:54:50;;;;;;;0.37;0.20;;;7.70;99.90;7.60;98302.00;;;;4902603;28;96411;-68
2024/01/04 05:57:19;;;;;;;0.10;0.10;;;7.80;99.90;7.60;98310.00;;;;4900146;28;110687;-70
2024/01/04 05:59:44;;;;;;;1.93;0.60;;;7.70;99.90;7.60;98304.00;;;;4902239;28;102531;-70
2024/01/04 06:02:10;;;;;;;0.10;0.10;;;7.70;99.90;7.60;98318.00;;;;4891796;28;122887;-68
2024/01/04 06:04:36;;;;;;;0.33;0.23;;;7.70;99.90;7.60;98315.00;;;;4902147;28;123355;-69
2024/01/04 06:07:01;;;;;;;4.00;0.30;;;7.70;99.90;7.60;98323.00;;;;4905084;28;110327;-68
2024/01/04 06:09:27;;;;;;;0.20;0.20;;;7.80;99.90;7.70;98334.00;;;;4902243;28;92910;-69
2024/01/04 06:11:53;;;;;;;0.50;0.43;;;8.10;99.90;7.70;98343.00;;;;4902651;28;101865;-69
2024/01/04 06:14:19;;;;;;;0.30;0.23;;;7.80;99.90;7.70;98341.00;;;;4906316;28;122106;-70
2024/01/04 06:16:45;;;;;;;0.33;0.30;;;7.80;99.90;7.70;98340.00;;;;4903099;28;93304;-69
2024/01/04 06:19:10;;;;;;;0.57;0.20;;;7.90;99.90;7.80;98338.00;;;;4904466;28;92926;-70
2024/01/04 06:21:37;;;;;;;0.10;0.10;;;7.90;99.90;7.80;98351.00;;;;4900967;28;113854;-70
2024/01/04 06:24:03;;;;;;;0.40;0.40;;;7.90;99.90;7.80;98366.00;;;;4904610;28;93687;-69
2024/01/04 06:26:29;;;;;;;0.43;0.30;;;7.90;99.90;7.80;98361.00;;;;4904616;28;102218;-68
2024/01/04 06:28:55;;;;;;;0.10;0.10;;;7.90;99.90;7.80;98374.00;;;;4904750;28;108596;-69
2024/01/04 06:31:20;;;;;;;0.10;0.10;;;7.90;99.90;7.80;98383.00;;;;4901723;28;122174;-69
2024/01/04 06:33:46;;;;;;;1.37;0.17;;;7.90;99.90;7.80;98387.00;;;;4901948;28;101902;-70
2024/01/04 06:36:12;;;;;;;2.10;0.20;;;7.90;99.90;7.80;98395.00;;;;4898416;28;110194;-69
2024/01/04 06:38:37;;;;;;;0.13;0.13;;;7.90;99.90;7.70;98413.00;;;;4899222;28;108230;-71
2024/01/04 06:41:03;;;;;;;0.40;0.30;;;7.90;99.90;7.70;98415.00;;;;4889560;28;117115;-70
2024/01/04 06:43:30;;;;;;;0.50;0.37;;;7.90;99.90;7.60;98416.00;;;;4898819;28;93115;-67
2024/01/04 06:45:59;;;;;;;3.30;0.27;;;7.80;99.90;7.60;98416.00;;;;4900260;28;93156;-70
2024/01/04 06:48:25;;;;;;;1.13;0.37;;;7.70;99.90;7.40;98406.00;;;;4901627;28;92444;-68
2024/01/04 06:50:51;;;;;;;0.10;0.10;;;7.60;99.90;7.40;98414.00;;;;4899967;28;94118;-69
2024/01/04 06:53:16;;;;;;;0.20;0.20;;;7.50;99.90;7.30;98423.00;;;;4896090;28;92914;-67
2024/01/04 06:55:45;;;;;;;0.87;0.10;;;7.80;99.90;7.20;98420.00;;;;4898557;28;94300;-69
2024/01/04 06:58:11;;;;;;;0.30;0.20;;;7.40;99.90;7.20;98419.00;;;;4900075;28;93344;-68
2024/01/04 07:00:37;;;;;;;0.30;0.30;;;7.50;99.90;7.20;98423.00;;;;4903502;28;94685;-68
2024/01/04 07:03:04;;;;;;;0.10;0.10;;;7.80;99.90;7.10;98427.00;;;;4898540;28;121651;-69
2024/01/04 07:05:30;;;;;;;0.27;0.27;;;7.30;99.90;7.10;98431.00;;;;4899716;28;93409;-69
2024/01/04 07:07:56;;;;;;;0.40;0.23;;;7.40;99.90;7.10;98446.00;;;;4897195;28;93275;-69
2024/01/04 07:10:21;;;;;;;0.13;0.13;;;7.30;99.90;7.10;98436.00;;;;4899860;28;113789;-70
2024/01/04 07:12:47;;;;;;;1.27;1.07;;;7.20;99.90;7.10;98440.00;;;;4896872;28;93120;-68
2024/01/04 07:15:13;;;;;;;0.30;0.30;;;7.30;99.90;7.10;98446.00;;;;4902767;28;93121;-68
2024/01/04 07:17:45;;;;;;;0.10;0.10;;;7.20;99.90;7.10;98440.00;;;;4897570;28;94459;-69
2024/01/04 07:20:11;;;;;;;0.20;0.20;;;7.30;99.90;7.10;98438.00;;;;4897617;28;94029;-69
2024/01/04 07:22:37;;;;;;;0.30;0.13;;;7.20;99.90;7.10;98444.00;;;;4899467;28;93797;-69
2024/01/04 07:25:03;;;;;;;0.10;0.10;;;7.50;99.90;7.20;98449.00;;;;4892717;28;107602;-69
2024/01/04 07:27:29;;;;;;;0.30;0.30;;;7.30;99.90;7.20;98452.00;;;;4899821;28;93348;-69
2024/01/04 07:29:56;;;;;;;0.30;0.30;;;7.30;99.90;7.20;98454.00;;;;4897887;28;93011;-69
2024/01/04 07:32:22;;;;;;;0.30;0.30;;;7.30;99.90;7.30;98452.00;;;;4896308;28;93021;-67
2024/01/04 07:34:48;;;;;;;0.40;0.30;;;7.40;99.90;7.30;98459.00;;;;4898559;28;109154;-68
2024/01/04 07:37:14;;;;;;;1.07;0.50;;;7.40;99.90;7.40;98457.00;;;;4895217;28;108611;-68
2024/01/04 07:39:41;;;;;;;0.50;0.40;;;7.50;99.90;7.40;98458.00;;;;4905087;28;94070;-69
2024/01/04 07:42:07;;;;;;;0.67;0.40;;;7.50;99.90;7.40;98452.00;;;;4912261;28;93673;-67
2024/01/04 07:44:33;;;;;;;0.20;0.20;;;7.60;99.90;7.50;98455.00;;;;4899213;28;93856;-68
2024/01/04 07:46:59;;;;;;;0.47;0.40;;;7.60;99.90;7.50;98450.00;;;;4897191;28;93081;-69
2024/01/04 07:49:24;;;;;;;0.30;0.30;;;7.60;99.90;7.50;98461.00;;;;4900011;28;124069;-69
2024/01/04 07:51:52;;;;;;;1.40;0.40;;;7.60;99.90;7.50;98460.00;;;;4899447;28;92890;-71
2024/01/04 07:54:20;;;;;;;0.30;0.30;;;7.60;99.90;7.50;98457.00;;;;4897613;28;93304;-70
2024/01/04 07:56:46;;;;;;;0.10;0.10;;;7.60;99.90;7.50;98465.00;;;;4901633;28;93049;-70
2024/01/04 07:59:12;;;;;;;0.20;0.20;;;7.60;99.90;7.50;98468.00;;;;4897890;28;123961;-66
2024/01/04 08:01:38;;;;;;;0.20;0.20;;;7.60;99.90;7.50;98470.00;;;;4899343;28;93391;-68
2024/01/04 08:04:04;;;;;;;0.47;0.40;;;7.60;99.90;7.50;98471.00;;;;4897223;28;93291;-69
2024/01/04 08:06:31;;;;;;;1.40;0.37;;;7.60;99.90;7.50;98459.00;;;;4897101;28;108385;-66
2024/01/04 08:08:56;;;;;;;0.23;0.20;;;7.60;99.90;7.50;98468.00;;;;4899305;28;94249;-68
2024/01/04 08:11:23;;;;;;;0.60;0.30;;;6.60;99.90;7.50;98465.00;;;;4911821;28;105347;-68
2024/01/04 08:13:50;;;;;;;1.40;0.37;;;7.60;99.90;7.50;98467.00;;;;4895094;28;94066;-66
2024/01/04 08:16:16;;;;;;;0.20;0.20;;;7.60;99.90;7.50;98470.00;;;;4895221;28;93380;-67
2024/01/04 08:18:42;;;;;;;0.33;0.33;;;7.60;99.90;7.50;98471.00;;;;4897440;28;122915;-68
2024/01/04 08:21:07;;;;;;;0.40;0.40;;;7.60;99.90;7.60;98482.00;;;;4893796;28;123863;-67
2024/01/04 08:23:33;;;;;;;0.20;0.20;;;7.70;99.90;7.60;98478.00;;;;4894513;28;111440;-68
2024/01/04 08:25:58;;;;;;;0.57;0.30;;;7.70;99.90;7.60;98477.00;;;;4898000;28;108564;-70
2024/01/04 08:28:24;;;;;;;0.20;0.20;;;7.70;99.90;7.60;98479.00;;;;4899325;28;102460;-69
2024/01/04 08:30:50;;;;;;;0.30;0.30;;;7.80;99.90;7.60;98481.00;;;;4896295;28;122706;-71
2024/01/04 08:33:15;;;;;;;0.30;0.23;;;7.80;99.90;7.70;98477.00;;;;4897838;28;110682;-70
2024/01/04 08:35:41;;;;;;;0.57;0.40;;;7.80;99.90;7.70;98485.00;;;;4898559;28;108789;-70
2024/01/04 08:38:07;;;;;;;0.37;0.33;;;7.80;99.90;7.70;98482.00;;;;4894040;28;121321;-69
2024/01/04 08:40:36;;;;;;;2.83;0.37;;;7.80;99.90;7.70;98484.00;;;;4899910;28;93159;-71
2024/01/04 08:43:03;;;;;;;0.67;0.30;;;7.90;99.90;7.80;98480.00;;;;4901418;28;92901;-71
2024/01/04 08:45:29;;;;;;;0.17;0.17;;;7.90;99.90;7.80;98483.00;;;;4898232;28;93116;-70
2024/01/04 08:47:55;;;;;;;0.60;0.30;;;8.00;99.90;7.90;98495.00;;;;4899566;28;114517;-71
2024/01/04 08:50:21;;;;;;;0.13;0.13;;;8.00;99.90;7.90;98502.00;;;;4899661;28;122209;-71
2024/01/04 08:52:47;;;;;;;0.30;0.30;;;8.10;99.90;8.00;98470.00;;;;4898976;28;111406;-72
2024/01/04 08:55:14;;;;;;;0.50;0.47;;;8.10;99.90;8.00;98499.00;;;;4903678;28;93092;-71
2024/01/04 08:57:39;;;;;;;1.10;0.40;;;8.10;99.90;8.10;98492.00;;;;4893607;28;97057;-70
2024/01/04 09:00:06;;;;;;;0.30;0.30;;;8.20;99.90;8.10;98503.00;;;;4898011;28;122664;-70
2024/01/04 09:02:32;;;;;;;0.53;0.40;;;8.20;99.90;8.10;98522.00;;;;4896950;28;100785;-70
2024/01/04 09:04:57;;;;;;;0.83;0.50;;;8.30;99.90;8.10;98510.00;;;;4894611;28;109665;-73
2024/01/04 09:07:23;;;;;;;1.57;0.30;;;8.20;99.90;8.10;98500.00;;;;4884150;28;122599;-70
2024/01/04 09:09:49;;;;;;;0.20;0.20;;;8.20;99.90;8.20;98511.00;;;;4899129;28;106488;-70
2024/01/04 09:12:15;;;;;;;0.50;0.40;;;7.80;99.90;8.20;98527.00;;;;4895227;28;109645;-71
2024/01/04 09:14:41;;;;;;;2.37;0.10;;;8.30;99.90;8.20;98505.00;;;;4911975;28;92427;-70
2024/01/04 09:17:06;;;;;;;1.03;0.30;;;8.30;99.90;8.20;98525.00;;;;4896720;28;122956;-70
2024/01/04 09:19:32;;;;;;;0.20;0.10;;;8.40;99.90;8.30;98541.00;;;;4894797;28;121151;-70
2024/01/04 09:21:58;;;;;;;0.13;0.13;;;8.40;99.90;8.30;98535.00;;;;4912409;28;94322;-70
2024/01/04 09:24:24;;;;;;;2.80;0.20;;;8.40;99.90;8.30;98528.00;;;;4896413;28;94701;-71
2024/01/04 09:26:50;;;;;;;0.70;0.30;;;8.40;99.90;8.30;98543.00;;;;4899409;28;101647;-70
2024/01/04 09:29:17;;;;;;;0.30;0.30;;;8.40;99.90;8.20;98549.00;;;;4899828;28;94766;-72
2024/01/04 09:31:43;;;;;;;0.30;0.20;;;8.30;99.90;8.30;98536.00;;;;4898901;28;92845;-72
2024/01/04 09:34:21;;;;;;;0.13;0.13;;;8.40;99.90;8.30;98551.00;;;;4904999;28;93300;-70
2024/01/04 09:36:47;;;;;;;0.00;0.00;;;8.50;99.90;8.40;98535.00;;;;4898063;28;120962;-68
2024/01/04 09:39:17;;;;;;;2.00;0.40;;;8.50;99.90;8.40;98542.00;;;;4898548;28;115158;-71
2024/01/04 09:41:47;;;;;;;0.40;0.20;;;8.50;99.90;8.50;98536.00;;;;4900138;28;92990;-70
2024/01/04 09:44:14;;;;;;;0.20;0.20;;;8.60;99.90;8.60;98557.00;;;;4896920;28;94264;-71
2024/01/04 09:46:41;;;;;;;0.10;0.10;;;8.40;99.90;8.60;98567.00;;;;4903528;28;113921;-68
2024/01/04 09:49:09;;;;;;;0.20;0.20;;;8.70;99.90;8.60;98561.00;;;;4898440;28;95035;-70
2024/01/04 09:51:39;;;;;;;0.37;0.30;;;8.70;99.90;8.60;98558.00;;;;4903016;28;93518;-71
2024/01/04 09:54:10;;;;;;;0.30;0.20;;;8.70;99.90;8.60;98553.00;;;;4897648;28;93482;-70
2024/01/04 09:56:54;;;;;;;0.20;0.20;;;8.70;99.90;8.70;98574.00;;;;4899276;28;93247;-70
2024/01/04 09:59:21;;;;;;;0.20;0.20;;;8.80;99.90;8.70;98562.00;;;;4901725;28;93079;-70
2024/01/04 10:01:47;;;;;;;0.30;0.20;;;8.80;99.90;8.70;98587.00;;;;4899806;28;92968;-71
2024/01/04 10:04:16;;;;;;;0.10;0.10;;;8.80;99.90;8.60;98608.00;;;;4897881;28;92361;-69
2024/01/04 10:06:44;;;;;;;0.57;0.33;;;8.80;99.90;8.40;98619.00;;;;4897203;28;94151;-72
2024/01/04 10:09:38;;;;;;;0.57;0.20;;;8.60;99.90;8.00;98625.00;;;;4897562;28;93804;-69
2024/01/04 10:12:08;;;;;;;0.13;0.10;;;8.40;99.90;7.80;98611.00;;;;4913003;28;93946;-70
2024/01/04 10:14:35;;;;;;;0.10;0.10;;;8.10;99.90;7.60;98618.00;;;;4903730;28;94092;-70
2024/01/04 10:17:02;;;;;;;0.70;0.47;;;7.90;99.90;7.50;98646.00;;;;4899085;28;96176;-69
2024/01/04 10:19:30;;;;;;;0.13;0.13;;;8.50;99.90;7.40;98640.00;;;;4899798;28;94169;-69
2024/01/04 10:22:06;;;;;;;0.83;0.30;;;7.60;99.90;7.30;98643.00;;;;4902550;28;93009;-73
2024/01/04 10:24:38;;;;;;;0.33;0.33;;;7.50;99.90;7.20;98655.00;;;;4900855;28;93220;-72
2024/01/04 10:27:05;;;;;;;0.50;0.27;;;7.40;99.90;7.10;98661.00;;;;4900465;28;93049;-70
2024/01/04 10:29:36;;;;;;;1.17;0.30;;;7.40;99.90;7.10;98657.00;;;;4905527;28;92722;-69
2024/01/04 10:32:13;;;;;;;0.30;0.30;;;7.30;99.90;7.00;98645.00;;;;4884804;28;95740;-69
2024/01/04 10:34:40;;;;;;;0.30;0.30;;;7.20;99.90;7.00;98656.00;;;;4868534;28;92941;-69
2024/01/04 10:37:15;;;;;;;0.40;0.40;;;7.20;99.90;6.90;98664.00;;;;4877254;28;95408;-71
2024/01/04 10:39:45;;;;;;;0.13;0.13;;;7.10;99.90;6.90;98656.00;;;;4891945;28;93724;-69
2024/01/04 10:42:13;;;;;;;0.50;0.30;;;7.50;99.90;6.80;98669.00;;;;4876400;28;94323;-68
2024/01/04 10:44:39;;;;;;;0.83;0.40;;;7.00;99.90;6.80;98688.00;;;;4880192;28;92990;-68
2024/01/04 10:47:08;;;;;;;0.90;0.40;;;6.90;99.90;6.70;98692.00;;;;4880093;28;93920;-70
2024/01/04 10:49:40;;;;;;;0.87;0.40;;;6.90;99.90;6.60;98699.00;;;;4879055;28;93298;-69
2024/01/04 10:52:15;;;;;;;1.37;0.30;;;6.80;99.90;6.50;98689.00;;;;4877072;28;93097;-68
2024/01/04 10:54:44;;;;;;;0.70;0.60;;;7.00;99.90;6.30;98700.00;;;;4878111;28;92576;-69
2024/01/04 10:57:11;;;;;;;0.57;0.27;;;7.00;99.90;6.20;98704.00;;;;4881337;28;93434;-70
2024/01/04 10:59:39;;;;;;;0.47;0.40;;;6.60;99.90;6.10;98692.00;;;;4879507;28;104189;-68
2024/01/04 11:02:05;;;;;;;0.30;0.30;;;6.50;99.90;6.00;98704.00;;;;4876850;28;93923;-67